Barkley Observed Data For Previous 48 Hours

Caption
Day and Hour Reservoir Elevation (behind dam)* Tailwater Elevation (below dam)* Average Hourly Discharge*
11/17/2017 1 AM CST 354.35 314.15 47,200
11/17/2017 2 AM CST 354.35 314.05 47,200
11/17/2017 3 AM CST 354.35 313.95 47,200
11/17/2017 4 AM CST 354.35 313.95 47,200
11/17/2017 5 AM CST 354.35 313.85 46,800
11/17/2017 6 AM CST 354.35 313.85 46,800
11/17/2017 7 AM CST 354.35 313.85 46,800
11/17/2017 8 AM CST 354.45 313.65 46,400
11/17/2017 9 AM CST 354.45 313.65 46,400
11/17/2017 10 AM CST 354.40 313.60 46,400
11/17/2017 11 AM CST 354.40 313.60 46,400
11/17/2017 12 PM CST 354.45 313.55 46,000
11/17/2017 1 PM CST 354.45 313.55 46,000
11/17/2017 2 PM CST 354.45 313.55 46,000
11/17/2017 3 PM CST 354.45 313.45 46,000
11/17/2017 4 PM CST 354.45 313.45 46,000
11/17/2017 5 PM CST 354.50 313.30 45,600
11/17/2017 6 PM CST 354.50 313.30 45,600
11/17/2017 7 PM CST 354.50 313.30 45,600
11/17/2017 8 PM CST 354.50 313.30 45,600
11/17/2017 9 PM CST 354.50 313.30 45,600
11/17/2017 10 PM CST 354.55 313.25 45,600
11/17/2017 11 PM CST 354.55 313.25 45,600
11/18/2017 12 AM CST 354.60 313.20 45,600
11/18/2017 1 AM CST 354.60 313.20 45,600
11/18/2017 2 AM CST 354.65 313.15 45,200
11/18/2017 3 AM CST 354.65 313.15 45,200
11/18/2017 4 AM CST 354.60 313.10 45,200
11/18/2017 5 AM CST 354.60 313.10 45,200
11/18/2017 6 AM CST 354.65 313.05 45,200
11/18/2017 7 AM CST 354.65 313.05 45,200
11/18/2017 8 AM CST 354.60 313.00 45,200
11/18/2017 9 AM CST 354.60 312.90 45,200
11/18/2017 10 AM CST 354.60 312.90 45,200
11/18/2017 11 AM CST 354.60 312.90 45,200
11/18/2017 12 PM CST 354.55 312.85 45,200
11/18/2017 1 PM CST 354.55 312.85 45,200
11/18/2017 2 PM CST 354.55 312.85 45,200
11/18/2017 3 PM CST 354.55 312.85 45,200
11/18/2017 4 PM CST 354.40 313.00 46,000
11/18/2017 5 PM CST 354.25 313.00 46,000
11/18/2017 6 PM CST 354.10 312.00 40,600
11/18/2017 7 PM CST 354.00 312.00 40,600
11/18/2017 8 PM CST 353.95 310.95 32,400
11/18/2017 9 PM CST 353.95 310.95 32,400
11/18/2017 10 PM CST 354.20 310.30 31,800
11/18/2017 11 PM CST 354.20 310.30 31,800
11/19/2017 12 AM CST 354.30 309.90 31,500
11/19/2017 1 AM CST 354.30 309.90 31,500
11/19/2017 2 AM CST 354.40 309.70 31,200

Elevations are in feet above sea level. Discharges are in cubic feet per second and are reported at the end of the hour.